Zweibrucken, Germany

5:07 AM CET on December 19, 2014 (GMT +0100)
ISAARLAN15 | Change Station
CLOSE
Current Station
Personal Weather Station
Location: Blieskastel, SAARLAND
Elevation: 922 ft
Nearby Weather Stations

Elev 922 ft 49.26 °N, 7.24 °E | Updated 7 minutes ago

Overcast
Overcast
49.6 °F
Feels Like 49 °F
N
3.7
Wind Variable Wind from WSW
Gusts 9.0 mph

Today
High -- | Low -- °F
--% Chance of Precip.
Yesterday
High -- | Low -- °F
Precip. -- in
8:21 AM 4:33 PM
Waning Crescent, 10% visible
Pressure 30.08 in
Visibility 6.2 miles
Clouds Mostly Cloudy 1600 ft
Overcast 3200 ft
Windchill 49 °F
Dew Point 48 °F
Humidity 95%
Rainfall 0.00 in
Snow Depth Not available.
UV 0 out of 12
Pollen Not available.
Air Quality Not available.
Flu Activity Not available.
METAR ETAR 190358Z AUTO 23009G17KT 9999 BKN016 OVC032 10/08 A3006 RMK AO2 SLP184 T01040078 $

More Conditions Fewer Conditions

Pressure 30.08 in
Visibility 6.2 miles
Clouds Mostly Cloudy 1600 ft
Overcast 3200 ft
Windchill 49 °F
Dew Point 48 °F
Humidity 95%
Rainfall 0.00 in
Snow Depth Not available.
UV 0 out of 12
Pollen Not available.
Air Quality Not available.
Flu Activity Not available.
METAR ETAR 190358Z AUTO 23009G17KT 9999 BKN016 OVC032 10/08 A3006 RMK AO2 SLP184 T01040078 $

More Conditions Fewer Conditions

10-Day Weather Forecast

Almanac

Astronomy

Dec. 19, 2014 Rise Set
Actual Time
Civil Twilight
Nautical Twilight
Astronomical Twilight
Moon
Length of Visible Light
Length of Day
Tomorrow will be .
, % of the Moon is Illuminated

Today's Extremes

Country Highs Country Lows

Community

WunderPhotos

Upload Photos

1,778,989 photos uploaded!

WunderBlogs® & News

Nearby

Air Quality

  Air Quality AQ Index Pollutant
Not available.

Snow Depth

Station Depth Elevation

Earthquake Activity

City Distance Mag. Time & Date
Minimum magnitude displayed is 2.5.

Coastal Water Temperatures

Place Temperature

Nearby Weather Stations